createdAt,value
2018-10-09T00:00:24.148Z,11.67
2018-10-09T00:02:56.571Z,10.67
2018-10-09T00:05:28.998Z,11.10
2018-10-09T00:08:01.419Z,12.30
2018-10-09T00:10:34.021Z,10.80
2018-10-09T00:13:06.467Z,10.57
2018-10-09T00:15:38.933Z,10.57
2018-10-09T00:18:11.338Z,10.93
2018-10-09T00:20:43.723Z,10.10
2018-10-09T00:23:16.144Z,11.43
2018-10-09T00:25:48.540Z,10.57
2018-10-09T00:28:21.024Z,10.40
2018-10-09T00:30:55.061Z,10.80
2018-10-09T00:33:27.486Z,11.17
2018-10-09T00:35:59.852Z,10.77
2018-10-09T00:38:32.866Z,10.70
2018-10-09T00:41:05.524Z,11.40
2018-10-09T00:43:38.444Z,10.90
2018-10-09T00:46:10.879Z,10.67
2018-10-09T00:48:43.693Z,10.80
2018-10-09T00:51:16.179Z,10.70
2018-10-09T00:53:48.620Z,10.40
2018-10-09T00:56:21.072Z,10.70
2018-10-09T00:58:53.454Z,11.03
2018-10-09T01:01:26.009Z,11.00
2018-10-09T01:03:58.721Z,11.30
2018-10-09T01:06:31.158Z,11.37
2018-10-09T01:09:05.959Z,10.63
2018-10-09T01:11:38.411Z,11.23
2018-10-09T01:14:10.913Z,11.23
2018-10-09T01:16:43.284Z,10.77
2018-10-09T01:19:15.715Z,10.97
2018-10-09T01:21:48.150Z,11.17
2018-10-09T01:24:20.870Z,11.30
2018-10-09T01:26:53.303Z,11.27
2018-10-09T01:29:26.375Z,11.80
2018-10-09T01:31:58.899Z,11.97
2018-10-09T01:34:31.268Z,11.50
2018-10-09T01:37:03.678Z,11.63
2018-10-09T01:39:36.333Z,11.70
2018-10-09T01:42:08.865Z,12.00
2018-10-09T01:44:41.267Z,11.63
2018-10-09T01:47:13.673Z,11.23
2018-10-09T01:49:46.112Z,11.33
2018-10-09T01:52:18.557Z,11.27
2018-10-09T01:54:51.025Z,11.57
2018-10-09T01:57:23.462Z,11.33
2018-10-09T01:59:55.902Z,11.37
2018-10-09T02:02:28.326Z,11.63
2018-10-09T02:05:00.802Z,11.37
2018-10-09T02:07:33.276Z,10.93
2018-10-09T02:10:05.750Z,10.73
2018-10-09T02:12:38.278Z,11.13
2018-10-09T02:15:10.677Z,11.97
2018-10-09T02:17:43.129Z,12.37
2018-10-09T02:20:15.778Z,10.87
2018-10-09T02:22:48.259Z,11.50
2018-10-09T02:25:21.004Z,11.73
2018-10-09T02:27:53.456Z,11.77
2018-10-09T02:30:26.338Z,12.20
2018-10-09T02:32:58.760Z,12.20
2018-10-09T02:35:31.192Z,11.47
2018-10-09T02:38:03.653Z,11.60
2018-10-09T02:40:36.417Z,11.90
2018-10-09T02:43:08.827Z,10.77
2018-10-09T02:45:41.292Z,11.87
2018-10-09T02:48:13.794Z,11.93
2018-10-09T02:50:46.255Z,12.37
2018-10-09T02:53:18.790Z,12.30
2018-10-09T02:55:51.553Z,12.83
2018-10-09T02:58:23.969Z,11.33
2018-10-09T03:00:56.483Z,12.17
2018-10-09T03:03:28.861Z,11.63
2018-10-09T03:06:01.349Z,11.83
2018-10-09T03:08:33.887Z,12.63
2018-10-09T03:11:06.568Z,11.90
2018-10-09T03:13:39.163Z,12.03
2018-10-09T03:16:11.606Z,12.03
2018-10-09T03:18:44.189Z,12.03
2018-10-09T03:21:16.889Z,12.47
2018-10-09T03:23:49.349Z,12.53
2018-10-09T03:26:21.820Z,12.77
2018-10-09T03:28:54.292Z,12.03
2018-10-09T03:31:26.735Z,12.50
2018-10-09T03:33:59.293Z,13.20
2018-10-09T03:36:31.778Z,11.90
2018-10-09T03:39:05.811Z,11.60
2018-10-09T03:41:38.629Z,13.43
2018-10-09T03:44:11.110Z,13.03
2018-10-09T03:46:43.568Z,12.27
2018-10-09T03:49:15.967Z,12.23
2018-10-09T03:51:48.420Z,11.87
2018-10-09T03:54:20.872Z,12.20
2018-10-09T03:56:53.342Z,13.03
2018-10-09T03:59:25.865Z,12.40
2018-10-09T04:01:58.505Z,13.17
2018-10-09T04:04:30.904Z,13.63
2018-10-09T04:07:03.375Z,13.50
2018-10-09T04:09:35.843Z,12.83
2018-10-09T04:12:08.273Z,11.73
2018-10-09T04:14:40.881Z,12.90
2018-10-09T04:17:13.340Z,13.13
2018-10-09T04:19:45.754Z,12.93
2018-10-09T04:22:19.987Z,12.63
2018-10-09T04:24:52.412Z,12.33
2018-10-09T04:27:24.824Z,12.30
2018-10-09T04:29:57.264Z,11.90
2018-10-09T04:32:29.675Z,13.17
2018-10-09T04:35:02.615Z,13.03
2018-10-09T04:37:35.191Z,12.97
2018-10-09T04:40:08.067Z,13.17
2018-10-09T04:42:40.498Z,12.33
2018-10-09T04:45:12.927Z,14.37
2018-10-09T04:47:45.345Z,13.53
2018-10-09T04:50:17.783Z,14.53
2018-10-09T04:52:50.182Z,14.90
2018-10-09T04:55:22.729Z,13.57
2018-10-09T04:57:55.129Z,15.00
2018-10-09T05:00:27.553Z,15.30
2018-10-09T05:03:00.110Z,15.27
2018-10-09T05:05:32.741Z,15.83
2018-10-09T05:08:05.212Z,15.13
2018-10-09T05:10:37.710Z,15.47
2018-10-09T05:13:10.197Z,15.23
2018-10-09T05:15:42.705Z,14.60
2018-10-09T05:18:15.136Z,15.97
2018-10-09T05:20:47.575Z,15.97
2018-10-09T05:23:20.356Z,16.47
2018-10-09T05:25:52.994Z,16.57
2018-10-09T05:28:25.452Z,16.97
2018-10-09T05:30:58.134Z,16.13
2018-10-09T05:33:30.629Z,15.20
2018-10-09T05:36:03.315Z,17.47
2018-10-09T05:38:36.808Z,17.53
2018-10-09T05:41:09.249Z,17.40
2018-10-09T05:43:41.742Z,17.13
2018-10-09T05:46:14.527Z,17.00
2018-10-09T05:48:47.001Z,17.03
2018-10-09T05:51:19.455Z,17.40
2018-10-09T05:53:52.081Z,16.10
2018-10-09T05:56:24.634Z,17.87
2018-10-09T05:58:57.029Z,20.20
2018-10-09T06:01:29.521Z,17.90
2018-10-09T06:04:02.059Z,18.03
2018-10-09T06:06:34.458Z,17.60
2018-10-09T06:09:07.960Z,17.80
2018-10-09T06:11:40.713Z,19.20
2018-10-09T06:14:13.175Z,20.40
2018-10-09T06:16:45.768Z,19.57
2018-10-09T06:19:18.326Z,19.10
2018-10-09T06:21:50.829Z,19.67
2018-10-09T06:24:23.244Z,21.77
2018-10-09T06:26:55.671Z,20.73
2018-10-09T06:29:28.156Z,20.93
2018-10-09T06:32:00.620Z,21.90
2018-10-09T06:34:33.042Z,22.20
2018-10-09T06:37:05.630Z,22.43
2018-10-09T06:39:38.249Z,22.00
2018-10-09T06:42:10.940Z,21.73
2018-10-09T06:44:43.383Z,22.87
2018-10-09T06:47:15.928Z,22.50
2018-10-09T06:49:48.711Z,24.13
2018-10-09T06:52:21.389Z,23.93
2018-10-09T06:54:53.908Z,25.10
2018-10-09T06:57:26.448Z,24.47
2018-10-09T06:59:58.898Z,26.17
2018-10-09T07:02:31.370Z,25.83
2018-10-09T07:05:04.175Z,25.43
2018-10-09T07:07:36.655Z,25.53
2018-10-09T07:10:09.513Z,25.73
2018-10-09T07:12:41.910Z,26.40
2018-10-09T07:15:14.519Z,26.70
2018-10-09T07:17:47.467Z,26.10
2018-10-09T07:20:19.981Z,26.43
2018-10-09T07:22:52.527Z,25.40
2018-10-09T07:25:24.936Z,26.70
2018-10-09T07:27:57.409Z,27.73
2018-10-09T07:30:29.818Z,28.20
2018-10-09T07:33:02.448Z,28.37
2018-10-09T07:35:35.161Z,27.00
2018-10-09T07:38:07.684Z,26.67
2018-10-09T07:40:40.187Z,26.83
2018-10-09T07:43:12.653Z,28.33
2018-10-09T07:45:45.105Z,33.43
2018-10-09T07:48:17.614Z,29.03
2018-10-09T07:50:50.025Z,26.60
2018-10-09T07:53:22.598Z,28.20
2018-10-09T07:55:55.265Z,27.40
2018-10-09T07:58:27.968Z,28.77
2018-10-09T08:01:00.392Z,27.07
2018-10-09T08:03:32.863Z,27.57
2018-10-09T08:06:05.309Z,27.93
2018-10-09T08:08:37.870Z,28.07
2018-10-09T08:11:10.419Z,27.37
2018-10-09T08:13:42.828Z,26.43
2018-10-09T08:16:15.535Z,26.73
2018-10-09T08:18:48.015Z,27.43
2018-10-09T08:21:20.482Z,26.97
2018-10-09T08:23:52.953Z,26.43
2018-10-09T08:26:25.427Z,27.17
2018-10-09T08:28:58.777Z,26.77
2018-10-09T08:31:31.536Z,26.13
2018-10-09T08:34:04.137Z,26.00
2018-10-09T08:36:36.656Z,26.30
2018-10-09T08:39:09.222Z,25.60
2018-10-09T08:41:41.685Z,24.47
2018-10-09T08:44:14.127Z,24.90
2018-10-09T08:46:46.713Z,24.30
2018-10-09T08:49:19.183Z,25.03
2018-10-09T08:51:51.682Z,23.80
2018-10-09T08:54:24.194Z,22.97
2018-10-09T08:56:56.615Z,25.57
2018-10-09T08:59:29.203Z,25.67
2018-10-09T09:02:01.779Z,29.97
2018-10-09T09:04:34.332Z,34.43
2018-10-09T09:07:06.823Z,24.90
2018-10-09T09:09:39.380Z,25.60
2018-10-09T09:12:12.028Z,22.77
2018-10-09T09:14:44.531Z,24.83
2018-10-09T09:17:16.961Z,23.53
2018-10-09T09:19:50.016Z,23.80
2018-10-09T09:22:23.036Z,24.77
2018-10-09T09:24:55.532Z,25.73
2018-10-09T09:27:28.095Z,26.13
2018-10-09T09:30:00.427Z,27.77
2018-10-09T09:32:32.962Z,28.33
2018-10-09T09:35:05.459Z,27.63
2018-10-09T09:37:37.990Z,26.17
2018-10-09T09:40:10.567Z,27.37
2018-10-09T09:42:43.023Z,26.53
2018-10-09T09:45:15.516Z,26.43
2018-10-09T09:47:47.989Z,27.47
2018-10-09T09:50:20.594Z,26.87
2018-10-09T09:52:53.083Z,27.17
2018-10-09T09:55:25.748Z,24.30
2018-10-09T09:57:58.442Z,26.87
2018-10-09T10:00:36.606Z,25.00
2018-10-09T10:03:09.490Z,24.23
2018-10-09T10:05:41.893Z,27.40
2018-10-09T10:08:14.370Z,25.87
2018-10-09T10:10:46.903Z,24.27
2018-10-09T10:13:19.343Z,25.10
2018-10-09T10:15:51.885Z,22.40
2018-10-09T10:18:24.619Z,25.60
2018-10-09T10:20:57.097Z,20.60
2018-10-09T10:23:29.602Z,21.07
2018-10-09T10:26:02.072Z,20.13
2018-10-09T10:28:34.680Z,18.73
2018-10-09T10:31:07.113Z,18.67
2018-10-09T10:33:50.678Z,21.10
2018-10-09T10:36:23.972Z,19.97
2018-10-09T10:38:56.529Z,22.07
2018-10-09T10:41:30.795Z,21.53
2018-10-09T10:44:03.543Z,19.27
2018-10-09T10:46:41.665Z,19.93
2018-10-09T10:49:14.636Z,18.13
2018-10-09T10:51:47.186Z,18.23
2018-10-09T10:54:19.641Z,20.03
2018-10-09T10:56:52.177Z,17.43
2018-10-09T10:59:24.710Z,16.87
2018-10-09T11:01:57.427Z,20.40
2018-10-09T11:04:31.997Z,16.80
2018-10-09T11:07:04.696Z,16.63
2018-10-09T11:09:37.124Z,15.80
2018-10-09T11:12:09.696Z,14.97
2018-10-09T11:14:42.126Z,14.93
2018-10-09T11:17:15.018Z,16.83
2018-10-09T11:19:47.519Z,14.97
2018-10-09T11:22:20.092Z,15.33
2018-10-09T11:24:52.558Z,15.07
2018-10-09T11:27:25.698Z,16.40
2018-10-09T11:29:58.375Z,15.13
2018-10-09T11:32:31.394Z,15.73
2018-10-09T11:35:03.890Z,13.47
2018-10-09T11:37:36.289Z,13.03
2018-10-09T11:40:08.809Z,14.47
2018-10-09T11:42:41.416Z,15.87
2018-10-09T11:45:13.953Z,13.20
2018-10-09T11:47:46.627Z,12.63
2018-10-09T11:50:19.170Z,11.57
2018-10-09T11:52:51.617Z,10.73
2018-10-09T11:55:24.518Z,11.73
2018-10-09T11:57:57.013Z,10.27
2018-10-09T12:00:30.806Z,10.97
2018-10-09T12:03:04.169Z,10.70
2018-10-09T12:05:37.391Z,11.63
2018-10-09T12:08:09.839Z,12.37
2018-10-09T12:10:42.362Z,11.23
2018-10-09T12:13:14.797Z,10.60
2018-10-09T12:15:47.513Z,11.27
2018-10-09T12:18:19.982Z,11.07
2018-10-09T12:20:52.696Z,13.83
2018-10-09T12:23:25.232Z,14.80
2018-10-09T12:25:57.700Z,14.97
2018-10-09T12:28:30.187Z,13.57
2018-10-09T12:31:02.702Z,14.37
2018-10-09T12:33:35.282Z,10.00
2018-10-09T12:36:07.923Z,9.40
2018-10-09T12:38:40.330Z,10.23
2018-10-09T12:41:12.858Z,11.00
2018-10-09T12:43:45.389Z,9.97
2018-10-09T12:46:17.863Z,10.07
2018-10-09T12:48:50.275Z,9.67
2018-10-09T12:51:22.740Z,8.93
2018-10-09T12:53:55.222Z,9.70
2018-10-09T12:56:27.855Z,9.83
2018-10-09T12:59:00.381Z,9.63
2018-10-09T13:01:32.779Z,17.53
2018-10-09T13:04:05.355Z,33.63
2018-10-09T13:06:37.883Z,26.50
2018-10-09T13:09:11.883Z,11.17
2018-10-09T13:11:44.360Z,15.40
2018-10-09T13:14:16.849Z,19.33
2018-10-09T13:16:49.324Z,16.97
2018-10-09T13:19:21.766Z,10.57
2018-10-09T13:21:54.543Z,11.70
2018-10-09T13:24:26.825Z,9.93
2018-10-09T13:26:59.289Z,9.90
2018-10-09T13:29:31.684Z,10.43
2018-10-09T13:32:04.214Z,10.27
2018-10-09T13:34:36.975Z,10.40
2018-10-09T13:37:09.369Z,9.57
2018-10-09T13:39:41.994Z,10.30
2018-10-09T13:42:14.502Z,10.43
2018-10-09T13:44:47.056Z,10.33
2018-10-09T13:47:19.660Z,9.37
2018-10-09T13:49:52.248Z,10.03
2018-10-09T13:52:24.785Z,9.53
2018-10-09T13:54:57.282Z,9.80
2018-10-09T13:57:29.754Z,9.63
2018-10-09T14:00:02.279Z,9.90
2018-10-09T14:02:34.803Z,10.40
2018-10-09T14:05:07.443Z,9.30
2018-10-09T14:07:39.906Z,9.60
2018-10-09T14:10:12.816Z,9.87
2018-10-09T14:12:45.296Z,10.17
2018-10-09T14:15:18.090Z,12.10
2018-10-09T14:17:50.693Z,11.17
2018-10-09T14:20:23.143Z,10.83
2018-10-09T14:22:56.076Z,16.73
2018-10-09T14:25:28.620Z,15.37
2018-10-09T14:28:01.167Z,21.63
2018-10-09T14:30:33.647Z,41.60
2018-10-09T14:33:06.137Z,11.30
2018-10-09T14:35:38.607Z,11.53
2018-10-09T14:38:11.013Z,9.87
2018-10-09T14:40:43.518Z,10.90
2018-10-09T14:43:16.101Z,11.57
2018-10-09T14:45:48.949Z,10.23
2018-10-09T14:48:21.493Z,10.40
2018-10-09T14:50:54.436Z,9.30
2018-10-09T14:53:27.402Z,9.27
2018-10-09T14:56:00.305Z,10.53
2018-10-09T14:58:33.574Z,9.97
2018-10-09T15:01:06.257Z,10.40
2018-10-09T15:03:38.780Z,10.67
2018-10-09T15:06:11.287Z,11.27
2018-10-09T15:08:43.761Z,11.57
2018-10-09T15:11:16.282Z,10.80
2018-10-09T15:13:48.699Z,31.23
2018-10-09T15:16:21.295Z,16.13
2018-10-09T15:18:53.884Z,21.93
2018-10-09T15:21:26.332Z,23.90
2018-10-09T15:23:58.897Z,14.50
2018-10-09T15:26:32.418Z,15.23
2018-10-09T15:29:05.334Z,13.87
2018-10-09T15:31:37.895Z,12.63
2018-10-09T15:34:10.309Z,13.37
2018-10-09T15:36:42.803Z,12.93
2018-10-09T15:39:15.416Z,12.80
2018-10-09T15:41:47.871Z,12.83
2018-10-09T15:44:20.265Z,12.63
2018-10-09T15:46:52.942Z,12.83
2018-10-09T15:49:25.447Z,12.40
2018-10-09T15:51:57.890Z,13.20
2018-10-09T15:54:30.630Z,13.13
2018-10-09T15:57:03.257Z,13.30
2018-10-09T15:59:35.818Z,15.00
2018-10-09T16:02:08.342Z,13.87
2018-10-09T16:04:40.793Z,12.33
2018-10-09T16:07:13.474Z,12.93
2018-10-09T16:09:46.057Z,12.03
2018-10-09T16:12:18.618Z,12.47
2018-10-09T16:14:51.218Z,13.13
2018-10-09T16:17:23.910Z,12.47
2018-10-09T16:19:56.395Z,13.20
2018-10-09T16:22:28.875Z,12.93
2018-10-09T16:25:01.340Z,12.57
2018-10-09T16:27:33.974Z,12.87
2018-10-09T16:30:07.527Z,13.57
2018-10-09T16:32:40.187Z,13.47
2018-10-09T16:35:13.025Z,13.93
2018-10-09T16:37:45.632Z,14.10
2018-10-09T16:40:18.559Z,14.47
2018-10-09T16:42:50.953Z,14.17
2018-10-09T16:45:23.590Z,14.67
2018-10-09T16:47:56.337Z,16.30
2018-10-09T16:50:28.813Z,17.93
2018-10-09T16:53:01.336Z,17.73
2018-10-09T16:55:33.806Z,18.33
2018-10-09T16:58:06.194Z,36.07
2018-10-09T17:00:38.723Z,18.00
2018-10-09T17:03:11.761Z,25.87
2018-10-09T17:05:44.281Z,32.63
2018-10-09T17:08:16.835Z,42.17
2018-10-09T17:10:49.244Z,23.13
2018-10-09T17:13:21.773Z,73.67
2018-10-09T17:15:54.230Z,91.33
2018-10-09T17:18:26.774Z,23.90
2018-10-09T17:20:59.308Z,40.30
2018-10-09T17:23:32.130Z,37.50
2018-10-09T17:26:04.898Z,18.80
2018-10-09T17:28:39.047Z,23.63
2018-10-09T17:31:11.494Z,17.93
2018-10-09T17:33:43.952Z,21.20
2018-10-09T17:36:16.449Z,19.83
2018-10-09T17:38:49.138Z,51.00
2018-10-09T17:41:21.637Z,37.00
2018-10-09T17:43:54.520Z,65.70
2018-10-09T17:46:27.165Z,19.17
2018-10-09T17:48:59.798Z,52.73
2018-10-09T17:51:32.249Z,89.87
2018-10-09T17:54:04.730Z,90.33
2018-10-09T17:56:37.127Z,59.93
2018-10-09T17:59:09.590Z,51.20
2018-10-09T18:01:42.019Z,29.40
2018-10-09T18:04:14.515Z,28.23
2018-10-09T18:06:47.049Z,26.37
2018-10-09T18:09:19.630Z,24.87
2018-10-09T18:11:52.066Z,23.80
2018-10-09T18:14:24.637Z,24.07
2018-10-09T18:17:15.970Z,20.57
2018-10-09T18:19:48.428Z,20.23
2018-10-09T18:22:20.945Z,19.53
2018-10-09T18:24:53.446Z,18.10
2018-10-09T18:27:25.848Z,18.03
2018-10-09T18:29:58.351Z,19.63
2018-10-09T18:32:30.993Z,18.87
2018-10-09T18:35:03.565Z,17.90
2018-10-09T18:37:36.412Z,18.13
2018-10-09T18:40:09.113Z,18.83
2018-10-09T18:42:41.537Z,18.77
2018-10-09T18:45:14.102Z,19.30
2018-10-09T18:47:46.620Z,18.73
2018-10-09T18:50:19.190Z,19.70
2018-10-09T18:52:51.732Z,18.47
2018-10-09T18:55:24.173Z,20.47
2018-10-09T18:57:57.250Z,57.53
2018-10-09T19:00:29.761Z,98.50
2018-10-09T19:03:02.226Z,72.90
2018-10-09T19:05:34.691Z,107.60
2018-10-09T19:08:07.156Z,72.90
2018-10-09T19:10:39.685Z,50.60
2018-10-09T19:13:16.521Z,49.67
2018-10-09T19:15:49.066Z,33.03
2018-10-09T19:18:21.546Z,23.17
2018-10-09T19:20:53.996Z,29.43
2018-10-09T19:23:26.449Z,28.13
2018-10-09T19:25:59.661Z,27.80
2018-10-09T19:28:32.103Z,28.97
2018-10-09T19:31:05.406Z,26.93
2018-10-09T19:33:37.941Z,37.17
2018-10-09T19:36:10.602Z,35.23
2018-10-09T19:38:42.978Z,31.60
2018-10-09T19:41:15.398Z,32.57
2018-10-09T19:43:47.817Z,30.67
2018-10-09T19:46:20.241Z,29.47
2018-10-09T19:48:52.658Z,24.90
2018-10-09T19:51:25.314Z,24.67
2018-10-09T19:53:57.655Z,23.93
2018-10-09T19:56:30.533Z,34.47
2018-10-09T19:59:03.032Z,24.80
2018-10-09T20:01:35.470Z,25.27
2018-10-09T20:04:08.168Z,24.60
2018-10-09T20:06:40.819Z,25.27
2018-10-09T20:09:13.900Z,24.03
2018-10-09T20:11:46.410Z,23.17
2018-10-09T20:14:18.896Z,22.97
2018-10-09T20:16:51.325Z,22.83
2018-10-09T20:19:23.770Z,23.27
2018-10-09T20:21:56.258Z,23.33
2018-10-09T20:24:28.717Z,22.93
2018-10-09T20:27:01.411Z,22.47
2018-10-09T20:29:33.848Z,22.57
2018-10-09T20:32:06.783Z,21.47
2018-10-09T20:34:39.208Z,21.73
2018-10-09T20:37:11.658Z,22.30
2018-10-09T20:39:44.052Z,22.87
2018-10-09T20:42:16.535Z,23.37
2018-10-09T20:44:48.958Z,24.07
2018-10-09T20:47:26.845Z,23.80
2018-10-09T20:49:59.306Z,24.27
2018-10-09T20:52:32.805Z,25.30
2018-10-09T20:55:05.273Z,24.83
2018-10-09T20:57:38.264Z,23.70
2018-10-09T21:00:10.683Z,25.33
2018-10-09T21:02:43.195Z,24.30
2018-10-09T21:05:15.595Z,25.90
2018-10-09T21:07:48.057Z,25.00
2018-10-09T21:10:20.412Z,25.33
2018-10-09T21:12:52.882Z,26.90
2018-10-09T21:15:25.366Z,26.03
2018-10-09T21:17:57.897Z,26.23
2018-10-09T21:20:30.274Z,27.03
2018-10-09T21:23:02.733Z,28.00
2018-10-09T21:25:35.129Z,28.07
2018-10-09T21:28:07.802Z,27.57
2018-10-09T21:30:40.254Z,27.20
2018-10-09T21:33:12.892Z,27.70
2018-10-09T21:35:45.294Z,27.13
2018-10-09T21:38:17.709Z,26.33
2018-10-09T21:40:50.077Z,28.20
2018-10-09T21:43:22.523Z,27.60
2018-10-09T21:45:54.924Z,28.67
2018-10-09T21:48:27.328Z,29.23
2018-10-09T21:50:59.731Z,28.50
2018-10-09T21:53:32.886Z,29.37
2018-10-09T21:56:05.398Z,28.67
2018-10-09T21:58:37.914Z,29.43
2018-10-09T22:01:12.273Z,28.43
2018-10-09T22:03:44.695Z,29.17
2018-10-09T22:06:17.141Z,28.83
2018-10-09T22:08:49.562Z,28.70
2018-10-09T22:11:21.981Z,29.53
2018-10-09T22:13:54.397Z,29.03
2018-10-09T22:16:26.854Z,29.27
2018-10-09T22:18:59.278Z,28.80
2018-10-09T22:21:31.702Z,29.60
2018-10-09T22:24:04.175Z,29.27
2018-10-09T22:26:36.648Z,29.07
2018-10-09T22:29:09.219Z,28.47
2018-10-09T22:31:41.621Z,30.07
2018-10-09T22:34:14.084Z,29.07
2018-10-09T22:36:46.498Z,28.37
2018-10-09T22:39:18.901Z,29.57
2018-10-09T22:41:51.273Z,27.60
2018-10-09T22:44:23.675Z,29.47
2018-10-09T22:46:56.082Z,29.80
2018-10-09T22:49:28.566Z,30.37
2018-10-09T22:52:01.010Z,28.37
2018-10-09T22:54:33.503Z,28.40
2018-10-09T22:57:05.977Z,28.77
2018-10-09T22:59:38.360Z,29.90
2018-10-09T23:02:11.071Z,28.67
2018-10-09T23:04:43.445Z,29.90
2018-10-09T23:07:15.874Z,28.67
2018-10-09T23:09:48.265Z,29.30
2018-10-09T23:12:20.719Z,28.73
2018-10-09T23:14:53.140Z,30.40
2018-10-09T23:17:25.542Z,30.13
2018-10-09T23:19:57.924Z,29.00
2018-10-09T23:22:30.598Z,29.27
2018-10-09T23:25:03.068Z,29.30
